Terminal Aerodrome Forecast
Issued by NWS

Home | Current Version | Previous Version | Text Only | Print | Product List | Glossary On
Versions: 1 2 3 4 5 6 7 8 9 10 11 12 13 14 15
000
FTUS45 KTFX 301100
TAFLWT
TAF
KLWT 301120Z 3012/3112 23008KT P6SM OVC120
     FM301400 30007KT P6SM VCSH SCT060 BKN090
      TEMPO 3014/3018 -SHRA BKN060
     FM310000 VRB06KT P6SM BKN100=

USA.gov is the U.S. government's official web portal to all federal, state and local government web resources and services.